createdAt,value
2023-07-17T00:01:52.503Z,17.78
2023-07-17T00:04:20.243Z,17.71
2023-07-17T00:06:48.145Z,17.59
2023-07-17T00:09:16.353Z,17.55
2023-07-17T00:11:44.664Z,17.52
2023-07-17T00:14:12.789Z,17.49
2023-07-17T00:16:41.979Z,17.47
2023-07-17T00:19:10.024Z,17.44
2023-07-17T00:21:38.178Z,17.42
2023-07-17T00:24:06.298Z,17.41
2023-07-17T00:26:34.245Z,17.36
2023-07-17T00:29:24.374Z,17.33
2023-07-17T00:31:54.307Z,17.34
2023-07-17T00:34:22.884Z,17.30
2023-07-17T00:36:50.868Z,17.33
2023-07-17T00:39:20.312Z,17.35
2023-07-17T00:41:48.812Z,17.37
2023-07-17T00:44:16.719Z,17.44
2023-07-17T00:46:45.867Z,17.47
2023-07-17T00:49:15.802Z,17.51
2023-07-17T00:51:44.720Z,17.62
2023-07-17T00:54:15.782Z,17.65
2023-07-17T00:56:45.759Z,17.75
2023-07-17T00:59:14.585Z,17.74
2023-07-17T01:01:43.449Z,17.77
2023-07-17T01:04:11.177Z,17.83
2023-07-17T01:06:41.648Z,17.85
2023-07-17T01:09:10.291Z,17.90
2023-07-17T01:11:38.376Z,17.92
2023-07-17T01:14:06.404Z,17.94
2023-07-17T01:16:38.102Z,17.96
2023-07-17T01:19:05.852Z,18.00
2023-07-17T01:21:39.899Z,18.02
2023-07-17T01:24:09.342Z,18.17
2023-07-17T01:26:37.176Z,18.10
2023-07-17T01:29:05.301Z,18.01
2023-07-17T01:31:33.617Z,18.12
2023-07-17T01:34:01.724Z,18.13
2023-07-17T01:36:29.507Z,18.08
2023-07-17T01:38:58.329Z,17.69
2023-07-17T01:41:27.787Z,17.46
2023-07-17T01:43:58.168Z,17.34
2023-07-17T01:46:26.562Z,17.15
2023-07-17T01:48:54.403Z,16.87
2023-07-17T01:51:22.379Z,16.93
2023-07-17T01:53:50.110Z,16.85
2023-07-17T01:56:17.917Z,16.91
2023-07-17T01:58:47.970Z,16.87
2023-07-17T02:04:22.100Z,16.93
2023-07-17T02:06:49.939Z,16.84
2023-07-17T02:09:17.852Z,16.78
2023-07-17T02:11:45.619Z,16.72
2023-07-17T02:14:15.175Z,16.71
2023-07-17T02:16:42.989Z,16.69
2023-07-17T02:19:10.766Z,16.67
2023-07-17T02:21:38.714Z,16.66
2023-07-17T02:24:07.945Z,16.71
2023-07-17T02:26:35.684Z,16.73
2023-07-17T02:29:04.000Z,16.73
2023-07-17T02:31:33.380Z,16.56
2023-07-17T02:34:01.241Z,16.40
2023-07-17T02:36:30.124Z,16.32
2023-07-17T02:38:57.905Z,16.32
2023-07-17T02:41:26.010Z,16.28
2023-07-17T02:43:54.119Z,16.28
2023-07-17T02:46:22.669Z,16.33
2023-07-17T02:48:51.771Z,16.40
2023-07-17T02:51:20.361Z,16.44
2023-07-17T02:53:48.532Z,16.39
2023-07-17T02:56:16.264Z,16.39
2023-07-17T02:58:44.931Z,16.40
2023-07-17T03:01:13.004Z,16.37
2023-07-17T03:03:41.390Z,16.37
2023-07-17T03:06:10.487Z,16.38
2023-07-17T03:08:38.189Z,16.38
2023-07-17T03:11:06.673Z,16.37
2023-07-17T03:13:34.535Z,16.20
2023-07-17T03:16:02.438Z,16.13
2023-07-17T03:18:30.864Z,16.09
2023-07-17T03:20:59.029Z,16.00
2023-07-17T03:23:28.500Z,16.02
2023-07-17T03:25:58.034Z,15.98
2023-07-17T03:28:26.080Z,15.97
2023-07-17T03:30:55.541Z,15.93
2023-07-17T03:33:23.782Z,15.89
2023-07-17T03:35:51.588Z,15.87
2023-07-17T03:38:20.383Z,15.89
2023-07-17T03:40:49.678Z,15.98
2023-07-17T03:43:17.489Z,15.96
2023-07-17T03:45:47.690Z,15.95
2023-07-17T03:48:16.089Z,15.93
2023-07-17T03:50:44.370Z,15.90
2023-07-17T03:53:12.397Z,15.85
2023-07-17T03:55:40.763Z,15.80
2023-07-17T03:58:10.237Z,15.75
2023-07-17T04:00:38.508Z,15.76
2023-07-17T04:03:09.528Z,15.74
2023-07-17T04:05:41.437Z,15.76
2023-07-17T04:08:10.912Z,15.76
2023-07-17T04:10:38.812Z,15.74
2023-07-17T04:13:06.642Z,15.81
2023-07-17T04:15:36.982Z,15.90
2023-07-17T04:18:06.241Z,15.96
2023-07-17T04:20:34.762Z,15.93
2023-07-17T04:23:02.639Z,15.92
2023-07-17T04:25:30.594Z,15.95
2023-07-17T04:27:58.621Z,15.94
2023-07-17T04:30:26.719Z,15.99
2023-07-17T04:32:56.952Z,16.09
2023-07-17T04:35:25.034Z,16.12
2023-07-17T04:37:56.469Z,16.20
2023-07-17T04:40:24.741Z,16.36
2023-07-17T04:42:53.764Z,16.46
2023-07-17T04:45:21.881Z,16.53
2023-07-17T04:48:11.889Z,16.65
2023-07-17T04:50:40.282Z,16.74
2023-07-17T04:53:08.318Z,16.79
2023-07-17T04:55:36.188Z,16.82
2023-07-17T04:58:04.364Z,16.84
2023-07-17T05:00:35.373Z,16.84
2023-07-17T05:03:03.253Z,16.88
2023-07-17T05:05:33.076Z,16.97
2023-07-17T05:08:00.958Z,17.08
2023-07-17T05:10:29.852Z,17.18
2023-07-17T05:12:57.589Z,17.31
2023-07-17T05:15:25.573Z,17.46
2023-07-17T05:17:53.333Z,17.58
2023-07-17T05:20:21.484Z,17.67
2023-07-17T05:22:50.633Z,17.77
2023-07-17T05:25:18.635Z,17.85
2023-07-17T05:27:47.534Z,17.95
2023-07-17T05:30:17.529Z,18.04
2023-07-17T05:32:45.505Z,18.16
2023-07-17T05:35:13.399Z,18.26
2023-07-17T05:37:41.344Z,18.39
2023-07-17T05:40:12.471Z,18.55
2023-07-17T05:42:41.137Z,18.98
2023-07-17T05:45:11.479Z,19.60
2023-07-17T05:47:41.442Z,19.57
2023-07-17T05:50:12.113Z,19.69
2023-07-17T05:52:41.383Z,19.57
2023-07-17T05:55:09.823Z,19.77
2023-07-17T05:57:41.700Z,19.71
2023-07-17T06:00:12.595Z,20.14
2023-07-17T06:02:44.451Z,19.96
2023-07-17T06:05:13.468Z,19.91
2023-07-17T06:07:42.289Z,20.02
2023-07-17T06:10:13.874Z,20.23
2023-07-17T06:12:44.685Z,20.44
2023-07-17T06:15:14.875Z,20.48
2023-07-17T06:17:43.826Z,20.52
2023-07-17T06:20:13.616Z,20.70
2023-07-17T06:22:44.640Z,20.70
2023-07-17T06:25:13.770Z,20.59
2023-07-17T06:27:44.158Z,20.44
2023-07-17T06:30:13.685Z,20.42
2023-07-17T06:32:43.651Z,20.46
2023-07-17T06:35:12.718Z,20.60
2023-07-17T06:37:41.659Z,20.82
2023-07-17T06:40:12.031Z,21.06
2023-07-17T06:42:41.543Z,21.27
2023-07-17T06:45:12.675Z,21.32
2023-07-17T06:47:42.499Z,21.38
2023-07-17T06:50:11.475Z,21.32
2023-07-17T06:52:40.058Z,21.48
2023-07-17T06:55:09.962Z,21.78
2023-07-17T06:57:37.777Z,22.01
2023-07-17T07:00:07.848Z,22.14
2023-07-17T07:02:38.568Z,22.16
2023-07-17T07:05:08.598Z,22.07
2023-07-17T07:07:36.303Z,22.15
2023-07-17T07:10:04.241Z,22.06
2023-07-17T07:12:31.910Z,21.97
2023-07-17T07:14:59.626Z,21.95
2023-07-17T07:17:28.195Z,22.00
2023-07-17T07:19:57.426Z,22.19
2023-07-17T07:22:25.639Z,22.42
2023-07-17T07:24:53.296Z,22.58
2023-07-17T07:27:22.373Z,22.63
2023-07-17T07:29:50.150Z,22.64
2023-07-17T07:32:17.850Z,22.79
2023-07-17T07:34:45.582Z,22.82
2023-07-17T07:37:14.624Z,22.92
2023-07-17T07:39:42.732Z,22.87
2023-07-17T07:42:10.896Z,22.94
2023-07-17T07:44:38.515Z,23.27
2023-07-17T07:47:07.723Z,23.91
2023-07-17T07:49:35.440Z,24.37
2023-07-17T07:52:03.201Z,24.36
2023-07-17T07:54:32.725Z,24.22
2023-07-17T07:57:00.791Z,23.90
2023-07-17T07:59:29.108Z,23.81
2023-07-17T08:01:56.933Z,23.54
2023-07-17T08:04:24.769Z,23.46
2023-07-17T08:06:52.815Z,23.38
2023-07-17T08:09:20.774Z,23.41
2023-07-17T08:11:49.827Z,23.70
2023-07-17T08:14:17.807Z,23.66
2023-07-17T08:16:46.092Z,23.47
2023-07-17T08:19:14.328Z,23.42
2023-07-17T08:21:42.043Z,23.44
2023-07-17T08:24:10.696Z,23.72
2023-07-17T08:26:39.703Z,24.18
2023-07-17T08:29:10.010Z,24.39
2023-07-17T08:31:38.743Z,24.45
2023-07-17T08:34:06.608Z,24.55
2023-07-17T08:36:35.110Z,24.79
2023-07-17T08:39:05.874Z,24.70
2023-07-17T08:41:33.864Z,24.77
2023-07-17T08:44:03.588Z,24.95
2023-07-17T08:46:33.742Z,25.40
2023-07-17T08:49:04.026Z,25.58
2023-07-17T08:51:33.048Z,25.46
2023-07-17T08:54:27.128Z,25.14
2023-07-17T08:56:52.331Z,25.06
2023-07-17T08:59:22.470Z,25.24
2023-07-17T09:01:52.073Z,25.38
2023-07-17T09:04:21.210Z,25.64
2023-07-17T09:06:49.447Z,26.07
2023-07-17T09:09:18.300Z,26.04
2023-07-17T09:11:46.199Z,26.19
2023-07-17T09:14:13.955Z,26.39
2023-07-17T09:16:41.857Z,26.41
2023-07-17T09:19:11.041Z,26.03
2023-07-17T09:21:43.271Z,26.70
2023-07-17T09:24:11.081Z,26.60
2023-07-17T09:26:39.325Z,26.48
2023-07-17T09:29:07.863Z,27.01
2023-07-17T09:31:35.702Z,27.22
2023-07-17T09:34:13.320Z,27.39
2023-07-17T09:36:42.744Z,27.66
2023-07-17T09:39:12.204Z,27.09
2023-07-17T09:41:40.474Z,27.37
2023-07-17T09:44:10.147Z,27.69
2023-07-17T09:46:40.109Z,28.28
2023-07-17T09:49:09.205Z,28.10
2023-07-17T09:51:37.735Z,27.16
2023-07-17T09:54:07.288Z,27.37
2023-07-17T09:56:35.796Z,28.42
2023-07-17T09:59:14.940Z,29.03
2023-07-17T10:01:45.387Z,30.22
2023-07-17T10:04:18.594Z,31.15
2023-07-17T10:06:48.725Z,32.51
2023-07-17T10:09:21.894Z,33.60
2023-07-17T10:11:50.456Z,33.33
2023-07-17T10:14:18.528Z,32.91
2023-07-17T10:16:46.425Z,33.57
2023-07-17T10:19:14.124Z,33.85
2023-07-17T10:21:55.222Z,34.86
2023-07-17T10:24:25.989Z,35.12
2023-07-17T10:26:54.193Z,35.86
2023-07-17T10:29:31.854Z,35.83
2023-07-17T10:32:00.053Z,36.37
2023-07-17T10:34:49.445Z,36.31
2023-07-17T10:37:40.277Z,35.73
2023-07-17T10:40:27.936Z,34.54
2023-07-17T10:42:56.679Z,34.39
2023-07-17T10:45:36.075Z,35.10
2023-07-17T10:48:04.329Z,35.72
2023-07-17T10:50:32.097Z,35.97
2023-07-17T10:53:03.879Z,36.90
2023-07-17T10:55:33.676Z,36.07
2023-07-17T10:58:02.673Z,36.11
2023-07-17T11:00:31.493Z,36.82
2023-07-17T11:03:00.994Z,36.94
2023-07-17T11:05:28.915Z,36.20
2023-07-17T11:07:58.731Z,35.54
2023-07-17T11:10:27.273Z,35.11
2023-07-17T11:13:03.461Z,34.88
2023-07-17T11:15:33.766Z,36.11
2023-07-17T11:18:02.354Z,35.41
2023-07-17T11:20:31.364Z,35.12
2023-07-17T11:23:00.294Z,34.81
2023-07-17T11:25:29.900Z,35.83
2023-07-17T11:28:02.585Z,33.80
2023-07-17T11:30:33.466Z,34.32
2023-07-17T11:33:07.011Z,35.74
2023-07-17T11:35:42.603Z,35.25
2023-07-17T11:38:11.848Z,35.08
2023-07-17T11:41:03.152Z,35.63
2023-07-17T11:43:34.727Z,34.73
2023-07-17T11:46:05.208Z,34.10
2023-07-17T11:48:34.646Z,34.93
2023-07-17T11:51:05.421Z,33.77
2023-07-17T11:53:33.714Z,34.47
2023-07-17T11:56:03.668Z,35.24
2023-07-17T11:58:37.810Z,35.32
2023-07-17T12:01:08.125Z,33.79
2023-07-17T12:03:35.949Z,34.88
2023-07-17T12:06:04.744Z,31.97
2023-07-17T12:08:32.538Z,30.18
2023-07-17T12:11:00.332Z,29.50
2023-07-17T12:13:28.175Z,31.50
2023-07-17T12:15:57.839Z,33.08
2023-07-17T12:18:26.198Z,31.37
2023-07-17T12:20:54.481Z,32.73
2023-07-17T12:23:23.073Z,31.31
2023-07-17T12:25:50.895Z,31.07
2023-07-17T12:28:18.676Z,32.56
2023-07-17T12:30:47.086Z,31.80
2023-07-17T12:33:16.505Z,30.94
2023-07-17T12:35:46.227Z,31.47
2023-07-17T12:38:13.974Z,33.27
2023-07-17T12:40:42.113Z,33.53
2023-07-17T12:43:10.119Z,34.03
2023-07-17T12:45:38.183Z,34.09
2023-07-17T12:48:08.053Z,32.82
2023-07-17T12:50:38.056Z,29.65
2023-07-17T12:53:06.731Z,30.89
2023-07-17T12:55:34.617Z,32.71
2023-07-17T12:58:03.566Z,32.07
2023-07-17T13:00:31.864Z,31.43
2023-07-17T13:02:59.761Z,33.06
2023-07-17T13:05:27.547Z,32.63
2023-07-17T13:07:56.585Z,33.10
2023-07-17T13:10:24.586Z,33.61
2023-07-17T13:12:52.475Z,33.31
2023-07-17T13:15:20.452Z,33.50
2023-07-17T13:17:48.185Z,34.02
2023-07-17T13:20:16.417Z,33.47
2023-07-17T13:22:44.201Z,32.72
2023-07-17T13:25:13.660Z,33.01
2023-07-17T13:27:41.352Z,32.72
2023-07-17T13:30:10.567Z,32.33
2023-07-17T13:32:39.811Z,32.62
2023-07-17T13:35:08.990Z,33.27
2023-07-17T13:37:37.286Z,33.26
2023-07-17T13:40:06.272Z,33.47
2023-07-17T13:42:35.708Z,33.00
2023-07-17T13:45:03.408Z,32.80
2023-07-17T13:47:31.861Z,33.17
2023-07-17T13:49:59.867Z,33.29
2023-07-17T13:52:27.595Z,32.61
2023-07-17T13:54:56.487Z,32.14
2023-07-17T13:57:24.526Z,32.26
2023-07-17T13:59:54.260Z,32.62
2023-07-17T14:02:22.895Z,31.43
2023-07-17T14:04:50.891Z,29.57
2023-07-17T14:07:19.568Z,29.51
2023-07-17T14:09:47.933Z,30.86
2023-07-17T14:12:15.779Z,30.70
2023-07-17T14:14:43.552Z,29.45
2023-07-17T14:17:12.971Z,29.74
2023-07-17T14:19:41.121Z,29.16
2023-07-17T14:22:09.161Z,29.46
2023-07-17T14:24:37.047Z,29.85
2023-07-17T14:27:05.401Z,29.83
2023-07-17T14:29:33.086Z,29.60
2023-07-17T14:32:01.185Z,29.45
2023-07-17T14:34:30.401Z,29.42
2023-07-17T14:36:58.900Z,29.66
2023-07-17T14:39:28.613Z,28.89
2023-07-17T14:41:56.339Z,29.01
2023-07-17T14:44:26.594Z,29.46
2023-07-17T14:46:54.522Z,29.57
2023-07-17T14:49:32.700Z,29.91
2023-07-17T14:52:02.333Z,29.75
2023-07-17T14:54:30.004Z,29.38
2023-07-17T14:56:57.841Z,29.29
2023-07-17T14:59:25.860Z,29.31
2023-07-17T15:01:54.083Z,29.42
2023-07-17T15:04:22.455Z,29.17
2023-07-17T15:06:50.275Z,29.26
2023-07-17T15:09:20.222Z,28.59
2023-07-17T15:11:47.999Z,28.53
2023-07-17T15:14:26.084Z,28.44
2023-07-17T15:16:54.944Z,28.21
2023-07-17T15:19:22.711Z,28.48
2023-07-17T15:21:50.562Z,28.98
2023-07-17T15:24:20.094Z,28.76
2023-07-17T15:26:47.831Z,28.34
2023-07-17T15:29:16.138Z,28.25
2023-07-17T15:31:44.159Z,28.36
2023-07-17T15:34:11.858Z,28.75
2023-07-17T15:36:40.169Z,28.70
2023-07-17T15:39:08.586Z,28.92
2023-07-17T15:41:38.038Z,28.73
2023-07-17T15:44:06.186Z,28.76
2023-07-17T15:46:34.909Z,28.86
2023-07-17T15:49:02.677Z,28.93
2023-07-17T15:51:30.484Z,28.83
2023-07-17T15:53:58.184Z,28.87
2023-07-17T15:56:26.233Z,28.37
2023-07-17T15:58:55.705Z,28.51
2023-07-17T16:01:24.703Z,28.46
2023-07-17T16:03:52.881Z,28.56
2023-07-17T16:06:21.102Z,28.29
2023-07-17T16:08:48.945Z,28.17
2023-07-17T16:11:16.784Z,27.79
2023-07-17T16:13:44.504Z,27.50
2023-07-17T16:16:13.572Z,27.36
2023-07-17T16:18:41.488Z,27.49
2023-07-17T16:21:09.325Z,27.38
2023-07-17T16:23:37.038Z,27.38
2023-07-17T16:26:06.398Z,27.29
2023-07-17T16:28:34.420Z,27.25
2023-07-17T16:31:02.398Z,27.50
2023-07-17T16:33:31.564Z,27.89
2023-07-17T16:35:59.509Z,27.98
2023-07-17T16:38:27.552Z,27.96
2023-07-17T16:40:55.345Z,27.71
2023-07-17T16:43:23.127Z,27.47
2023-07-17T16:45:53.777Z,27.23
2023-07-17T16:48:22.188Z,26.87
2023-07-17T16:50:51.571Z,26.84
2023-07-17T16:53:19.323Z,27.07
2023-07-17T16:55:47.093Z,27.42
2023-07-17T16:58:16.432Z,27.55
2023-07-17T17:00:44.178Z,27.83
2023-07-17T17:03:12.375Z,27.50
2023-07-17T17:05:41.198Z,27.17
2023-07-17T17:08:10.342Z,27.18
2023-07-17T17:10:38.267Z,27.36
2023-07-17T17:13:06.121Z,27.27
2023-07-17T17:15:33.926Z,27.26
2023-07-17T17:18:01.962Z,27.03
2023-07-17T17:20:30.119Z,27.12
2023-07-17T17:22:58.563Z,27.01
2023-07-17T17:25:29.274Z,26.99
2023-07-17T17:27:59.242Z,26.82
2023-07-17T17:30:29.600Z,26.63
2023-07-17T17:32:58.712Z,26.58
2023-07-17T17:35:30.192Z,26.71
2023-07-17T17:37:59.291Z,26.65
2023-07-17T17:40:29.241Z,26.52
2023-07-17T17:42:57.826Z,26.51
2023-07-17T17:45:26.623Z,26.63
2023-07-17T17:47:55.073Z,26.72
2023-07-17T17:50:24.414Z,26.61
2023-07-17T17:52:52.748Z,26.63
2023-07-17T17:55:21.450Z,26.65
2023-07-17T17:57:51.356Z,26.76
2023-07-17T18:00:21.113Z,26.68
2023-07-17T18:02:50.043Z,26.57
2023-07-17T18:05:19.153Z,26.60
2023-07-17T18:07:48.367Z,26.58
2023-07-17T18:10:17.486Z,26.29
2023-07-17T18:12:46.154Z,26.20
2023-07-17T18:15:16.295Z,26.00
2023-07-17T18:17:44.647Z,25.91
2023-07-17T18:20:12.700Z,25.81
2023-07-17T18:22:40.755Z,25.74
2023-07-17T18:25:12.580Z,25.73
2023-07-17T18:27:41.036Z,25.63
2023-07-17T18:30:09.688Z,25.64
2023-07-17T18:32:38.865Z,25.58
2023-07-17T18:35:07.676Z,25.48
2023-07-17T18:37:35.777Z,25.32
2023-07-17T18:40:05.677Z,25.45
2023-07-17T18:42:33.395Z,25.24
2023-07-17T18:45:01.221Z,25.11
2023-07-17T18:47:29.623Z,25.01
2023-07-17T18:49:59.377Z,24.92
2023-07-17T18:52:29.735Z,24.89
2023-07-17T18:54:58.358Z,24.75
2023-07-17T18:57:26.667Z,24.66
2023-07-17T18:59:54.568Z,24.56
2023-07-17T19:02:22.416Z,24.43
2023-07-17T19:04:50.276Z,24.34
2023-07-17T19:07:19.332Z,24.22
2023-07-17T19:09:47.923Z,24.15
2023-07-17T19:12:15.975Z,24.03
2023-07-17T19:14:43.741Z,23.96
2023-07-17T19:17:11.523Z,23.83
2023-07-17T19:19:40.556Z,23.81
2023-07-17T19:22:08.334Z,23.67
2023-07-17T19:24:37.654Z,23.52
2023-07-17T19:27:06.379Z,23.52
2023-07-17T19:29:34.644Z,23.48
2023-07-17T19:32:02.477Z,23.43
2023-07-17T19:34:30.493Z,23.44
2023-07-17T19:36:58.220Z,23.44
2023-07-17T19:39:26.082Z,23.46
2023-07-17T19:41:55.486Z,23.30
2023-07-17T19:44:23.419Z,23.31
2023-07-17T19:46:51.402Z,23.22
2023-07-17T19:49:20.344Z,23.05
2023-07-17T19:51:48.286Z,22.76
2023-07-17T19:54:16.829Z,22.76
2023-07-17T19:56:44.579Z,22.75
2023-07-17T19:59:13.788Z,22.77
2023-07-17T20:01:41.671Z,22.81
2023-07-17T20:04:11.748Z,22.77
2023-07-17T20:06:40.097Z,22.65
2023-07-17T20:09:09.038Z,22.71
2023-07-17T20:11:39.833Z,22.71
2023-07-17T20:14:07.621Z,22.70
2023-07-17T20:16:37.295Z,22.79
2023-07-17T20:19:05.057Z,22.81
2023-07-17T20:21:34.309Z,22.49
2023-07-17T20:24:02.610Z,22.42
2023-07-17T20:26:30.346Z,22.46
2023-07-17T20:28:58.138Z,22.43
2023-07-17T20:31:26.091Z,22.21
2023-07-17T20:33:55.438Z,22.03
2023-07-17T20:36:23.270Z,22.07
2023-07-17T20:38:51.879Z,22.23
2023-07-17T20:41:19.887Z,22.16
2023-07-17T20:43:48.676Z,22.35
2023-07-17T20:46:16.477Z,22.30
2023-07-17T20:48:44.689Z,22.32
2023-07-17T20:51:15.303Z,22.20
2023-07-17T20:53:44.216Z,22.09
2023-07-17T20:56:13.062Z,22.15
2023-07-17T20:58:43.932Z,22.13
2023-07-17T21:01:18.105Z,22.08
2023-07-17T21:03:46.772Z,21.98
2023-07-17T21:06:15.966Z,22.05
2023-07-17T21:08:43.680Z,22.07
2023-07-17T21:11:11.798Z,22.02
2023-07-17T21:13:39.994Z,21.90
2023-07-17T21:16:07.947Z,21.77
2023-07-17T21:18:35.632Z,21.78
2023-07-17T21:21:03.566Z,21.64
2023-07-17T21:23:32.765Z,21.54
2023-07-17T21:26:00.483Z,21.39
2023-07-17T21:28:31.390Z,21.24
2023-07-17T21:30:59.415Z,21.28
2023-07-17T21:33:27.560Z,21.28
2023-07-17T21:35:55.786Z,21.30
2023-07-17T21:38:23.640Z,21.26
2023-07-17T21:40:52.762Z,21.32
2023-07-17T21:43:20.492Z,21.26
2023-07-17T21:45:49.570Z,21.23
2023-07-17T21:48:17.241Z,21.20
2023-07-17T21:50:45.131Z,21.15
2023-07-17T21:53:15.293Z,21.24
2023-07-17T21:55:43.624Z,21.12
2023-07-17T21:58:12.674Z,21.14
2023-07-17T22:00:40.327Z,21.11
2023-07-17T22:03:09.380Z,21.46
2023-07-17T22:05:37.170Z,21.31
2023-07-17T22:08:05.224Z,20.99
2023-07-17T22:10:32.934Z,20.66
2023-07-17T22:13:00.867Z,20.71
2023-07-17T22:15:29.981Z,20.65
2023-07-17T22:17:57.729Z,20.45
2023-07-17T22:20:25.845Z,20.36
2023-07-17T22:22:53.579Z,20.19
2023-07-17T22:25:21.289Z,20.14
2023-07-17T22:27:50.561Z,20.07
2023-07-17T22:30:18.505Z,20.10
2023-07-17T22:32:48.018Z,20.10
2023-07-17T22:35:16.657Z,19.96
2023-07-17T22:37:44.750Z,19.88
2023-07-17T22:40:13.260Z,19.87
2023-07-17T22:42:41.000Z,19.86
2023-07-17T22:45:09.924Z,19.93
2023-07-17T22:47:37.662Z,19.76
2023-07-17T22:50:08.045Z,19.71
2023-07-17T22:52:35.873Z,19.68
2023-07-17T22:55:07.026Z,19.56
2023-07-17T22:57:34.779Z,19.59
2023-07-17T23:00:02.735Z,19.54
2023-07-17T23:02:30.779Z,19.43
2023-07-17T23:04:59.709Z,19.43
2023-07-17T23:07:28.935Z,19.46
2023-07-17T23:09:56.963Z,19.35
2023-07-17T23:15:11.212Z,19.46
2023-07-17T23:17:40.694Z,19.61
2023-07-17T23:20:12.272Z,19.28
2023-07-17T23:22:42.709Z,19.03
2023-07-17T23:25:11.366Z,18.94
2023-07-17T23:27:39.646Z,19.07
2023-07-17T23:30:10.147Z,18.97
2023-07-17T23:32:38.089Z,18.90
2023-07-17T23:35:07.079Z,18.72
2023-07-17T23:37:35.181Z,18.29
2023-07-17T23:40:05.310Z,18.19
2023-07-17T23:42:34.217Z,18.02
2023-07-17T23:45:02.712Z,17.87
2023-07-17T23:47:31.263Z,17.75
2023-07-17T23:49:59.211Z,17.60
2023-07-17T23:52:27.205Z,17.64
2023-07-17T23:54:55.405Z,17.64
2023-07-17T23:57:25.990Z,17.63
2023-07-17T23:59:53.793Z,17.65
